createdAt,value
2022-11-09T00:04:01.518Z,47.28
2022-11-09T00:08:54.930Z,42.17
2022-11-09T00:13:49.234Z,44.92
2022-11-09T00:18:47.897Z,47.47
2022-11-09T00:23:41.522Z,48.72
2022-11-09T00:28:36.142Z,47.53
2022-11-09T00:33:32.546Z,46.50
2022-11-09T00:38:30.881Z,47.40
2022-11-09T00:43:28.112Z,46.70
2022-11-09T00:48:22.857Z,48.22
2022-11-09T00:53:22.555Z,50.00
2022-11-09T00:58:16.081Z,48.58
2022-11-09T01:03:13.194Z,47.40
2022-11-09T01:08:08.212Z,50.17
2022-11-09T01:13:03.739Z,47.05
2022-11-09T01:17:58.382Z,45.95
2022-11-09T01:22:52.057Z,46.83
2022-11-09T01:27:46.322Z,48.60
2022-11-09T01:32:39.889Z,46.55
2022-11-09T01:37:33.550Z,49.50
2022-11-09T01:42:28.073Z,47.78
2022-11-09T01:47:25.197Z,48.97
2022-11-09T01:52:30.775Z,47.33
2022-11-09T01:57:31.192Z,46.67
2022-11-09T02:02:25.225Z,49.38
2022-11-09T02:07:20.052Z,45.13
2022-11-09T02:12:12.807Z,46.33
2022-11-09T02:17:06.423Z,47.58
2022-11-09T02:22:00.490Z,49.95
2022-11-09T02:26:54.742Z,46.05
2022-11-09T02:31:52.525Z,44.22
2022-11-09T02:36:46.390Z,43.15
2022-11-09T02:41:48.691Z,44.33
2022-11-09T02:46:43.631Z,42.00
2022-11-09T02:51:36.668Z,41.47
2022-11-09T02:56:30.473Z,41.22
2022-11-09T03:01:24.208Z,43.15
2022-11-09T03:06:17.149Z,40.33
2022-11-09T03:11:12.347Z,40.03
2022-11-09T03:16:08.352Z,40.60
2022-11-09T03:21:06.423Z,42.95
2022-11-09T03:25:59.000Z,45.22
2022-11-09T03:30:53.458Z,45.67
2022-11-09T03:35:47.472Z,43.88
2022-11-09T03:40:43.997Z,47.65
2022-11-09T03:45:38.255Z,45.83
2022-11-09T03:50:34.326Z,46.08
2022-11-09T03:55:27.965Z,47.30
2022-11-09T04:00:23.309Z,45.45
2022-11-09T04:05:16.233Z,44.58
2022-11-09T04:10:11.374Z,44.88
2022-11-09T04:15:06.777Z,46.00
2022-11-09T04:19:59.714Z,47.33
2022-11-09T04:24:54.366Z,47.00
2022-11-09T04:29:47.636Z,45.30
2022-11-09T04:34:41.838Z,47.58
2022-11-09T04:39:35.683Z,44.85
2022-11-09T04:44:30.221Z,48.63
2022-11-09T04:49:23.533Z,44.42
2022-11-09T04:54:18.027Z,45.65
2022-11-09T04:59:12.371Z,47.42
2022-11-09T05:04:06.565Z,47.45
2022-11-09T05:09:03.790Z,44.85
2022-11-09T05:13:57.652Z,44.05
2022-11-09T05:18:50.990Z,46.38
2022-11-09T05:24:01.613Z,48.80
2022-11-09T05:28:55.525Z,47.88
2022-11-09T05:33:51.858Z,47.92
2022-11-09T05:38:45.549Z,47.90
2022-11-09T05:43:38.355Z,45.33
2022-11-09T05:48:32.754Z,46.05
2022-11-09T05:53:26.698Z,45.60
2022-11-09T05:58:20.909Z,48.33
2022-11-09T06:03:14.505Z,47.88
2022-11-09T06:08:10.478Z,47.33
2022-11-09T06:13:04.625Z,46.35
2022-11-09T06:18:00.524Z,46.40
2022-11-09T06:23:02.551Z,43.50
2022-11-09T06:27:57.036Z,44.17
2022-11-09T06:32:55.061Z,45.95
2022-11-09T06:37:48.649Z,46.58
2022-11-09T06:42:42.362Z,46.05
2022-11-09T06:47:36.724Z,50.05
2022-11-09T06:52:30.545Z,47.00
2022-11-09T06:57:24.563Z,46.33
2022-11-09T07:02:20.693Z,47.72
2022-11-09T07:07:13.447Z,48.63
2022-11-09T07:12:08.102Z,46.38
2022-11-09T07:17:00.990Z,49.33
2022-11-09T07:21:54.322Z,49.25
2022-11-09T07:26:49.889Z,47.03
2022-11-09T07:31:43.165Z,49.20
2022-11-09T07:36:55.754Z,48.55
2022-11-09T07:41:49.174Z,47.88
2022-11-09T07:46:44.629Z,47.10
2022-11-09T07:51:38.577Z,50.90
2022-11-09T07:56:31.507Z,45.20
2022-11-09T08:01:26.294Z,48.80
2022-11-09T08:06:20.105Z,49.78
2022-11-09T08:11:13.682Z,50.63
2022-11-09T08:16:07.290Z,51.08
2022-11-09T08:21:04.264Z,50.35
2022-11-09T08:25:56.981Z,48.60
2022-11-09T08:31:05.740Z,50.53
2022-11-09T08:35:58.895Z,51.17
2022-11-09T08:40:57.529Z,52.78
2022-11-09T08:45:52.020Z,54.03
2022-11-09T08:50:46.242Z,52.08
2022-11-09T08:55:40.128Z,52.30
2022-11-09T09:00:33.994Z,51.83
2022-11-09T09:05:26.996Z,52.03
2022-11-09T09:10:21.194Z,52.53
2022-11-09T09:15:14.733Z,53.50
2022-11-09T09:20:08.853Z,53.75
2022-11-09T09:25:02.827Z,54.13
2022-11-09T09:29:56.718Z,55.90
2022-11-09T09:34:51.402Z,51.85
2022-11-09T09:39:45.137Z,52.80
2022-11-09T09:44:41.241Z,52.67
2022-11-09T09:49:37.850Z,54.13
2022-11-09T09:54:36.207Z,53.17
2022-11-09T09:59:42.800Z,53.80
2022-11-09T10:04:42.048Z,55.25
2022-11-09T10:10:10.858Z,60.17
2022-11-09T10:15:20.477Z,60.73
2022-11-09T10:20:36.414Z,58.83
2022-11-09T10:25:57.869Z,57.72
2022-11-09T10:30:45.777Z,57.30
2022-11-09T10:35:45.913Z,53.30
2022-11-09T10:40:48.295Z,56.95
2022-11-09T10:46:09.195Z,52.30
2022-11-09T10:51:34.650Z,54.55
2022-11-09T10:57:06.073Z,51.38
2022-11-09T11:02:27.288Z,50.78
2022-11-09T11:07:38.875Z,51.30
2022-11-09T11:13:10.575Z,52.75
2022-11-09T11:18:25.197Z,52.92
2022-11-09T11:23:37.556Z,55.08
2022-11-09T11:29:03.248Z,53.30
2022-11-09T11:34:32.175Z,56.67
2022-11-09T11:40:13.563Z,54.47
2022-11-09T11:45:50.061Z,56.92
2022-11-09T11:51:01.652Z,60.13
2022-11-09T11:56:27.923Z,60.97
2022-11-09T12:01:48.383Z,56.20
2022-11-09T12:07:25.107Z,56.25
2022-11-09T12:13:04.060Z,51.97
2022-11-09T12:18:46.327Z,51.65
2022-11-09T12:24:13.244Z,48.33
2022-11-09T12:30:10.693Z,47.60
2022-11-09T12:36:11.732Z,46.67
2022-11-09T12:41:43.601Z,48.28
2022-11-09T12:47:03.761Z,46.88
2022-11-09T12:52:21.677Z,51.53
2022-11-09T12:57:33.904Z,53.15
2022-11-09T13:02:55.515Z,50.38
2022-11-09T13:08:08.919Z,49.97
2022-11-09T13:13:23.410Z,51.15
2022-11-09T13:18:41.635Z,53.55
2022-11-09T13:24:02.910Z,52.42
2022-11-09T13:29:29.955Z,49.30
2022-11-09T13:34:44.272Z,55.95
2022-11-09T13:39:56.719Z,52.20
2022-11-09T13:45:29.041Z,53.42
2022-11-09T13:50:41.714Z,55.47
2022-11-09T13:55:53.569Z,51.65
2022-11-09T14:01:06.409Z,53.60
2022-11-09T14:06:18.064Z,52.97
2022-11-09T14:11:43.149Z,54.83
2022-11-09T14:17:18.702Z,55.38
2022-11-09T14:22:34.549Z,60.78
2022-11-09T14:27:57.157Z,58.45
2022-11-09T14:33:35.037Z,59.15
2022-11-09T14:38:48.184Z,60.67
2022-11-09T14:44:02.195Z,61.80
2022-11-09T14:49:14.420Z,59.38
2022-11-09T14:54:28.946Z,59.67
2022-11-09T14:59:43.453Z,61.60
2022-11-09T15:05:03.929Z,60.25
2022-11-09T15:10:23.119Z,60.17
2022-11-09T15:15:36.480Z,60.53
2022-11-09T15:20:48.115Z,60.00
2022-11-09T15:26:00.602Z,63.00
2022-11-09T15:31:15.880Z,59.33
2022-11-09T15:36:33.408Z,61.35
2022-11-09T15:41:45.952Z,59.28
2022-11-09T15:46:59.371Z,60.40
2022-11-09T15:52:12.263Z,60.20
2022-11-09T15:57:23.840Z,60.67
2022-11-09T16:02:36.279Z,61.05
2022-11-09T16:07:51.767Z,60.65
2022-11-09T16:13:03.707Z,62.67
2022-11-09T16:18:22.903Z,60.13
2022-11-09T16:23:36.711Z,62.45
2022-11-09T16:28:48.303Z,62.55
2022-11-09T16:34:00.976Z,60.97
2022-11-09T16:39:17.972Z,58.97
2022-11-09T16:44:34.541Z,64.90
2022-11-09T16:49:46.783Z,61.72
2022-11-09T16:54:59.327Z,60.42
2022-11-09T17:00:11.666Z,64.25
2022-11-09T17:05:24.436Z,63.17
2022-11-09T17:10:36.842Z,61.33
2022-11-09T17:15:50.158Z,67.10
2022-11-09T17:21:01.841Z,63.85
2022-11-09T17:26:13.487Z,62.40
2022-11-09T17:31:26.605Z,63.88
2022-11-09T17:42:12.307Z,66.03
2022-11-09T17:47:28.781Z,65.70
2022-11-09T17:52:41.156Z,67.28
2022-11-09T17:57:52.593Z,67.88
2022-11-09T18:03:05.469Z,69.47
2022-11-09T18:08:22.283Z,67.90
2022-11-09T18:13:34.005Z,67.55
2022-11-09T18:18:45.605Z,65.95
2022-11-09T18:23:58.293Z,64.85
2022-11-09T18:29:09.868Z,66.68
2022-11-09T18:34:22.665Z,65.60
2022-11-09T18:39:34.968Z,63.65
2022-11-09T18:44:45.726Z,65.90
2022-11-09T18:49:58.706Z,64.55
2022-11-09T18:55:11.821Z,65.70
2022-11-09T19:00:23.918Z,62.55
2022-11-09T19:05:40.846Z,61.72
2022-11-09T19:10:53.172Z,63.78
2022-11-09T19:16:06.071Z,61.13
2022-11-09T19:21:30.703Z,61.92
2022-11-09T19:26:42.700Z,61.20
2022-11-09T19:31:55.956Z,57.42
2022-11-09T19:37:09.271Z,57.08
2022-11-09T19:42:21.388Z,57.65
2022-11-09T19:47:33.072Z,57.70
2022-11-09T19:52:45.609Z,57.63
2022-11-09T19:57:58.132Z,58.13
2022-11-09T20:03:10.689Z,55.42
2022-11-09T20:08:23.358Z,57.28
2022-11-09T20:13:38.195Z,90.10
2022-11-09T20:18:50.676Z,59.33
2022-11-09T20:24:03.366Z,59.42
2022-11-09T20:29:15.793Z,59.67
2022-11-09T20:34:30.225Z,57.78
2022-11-09T20:39:43.284Z,62.55
2022-11-09T20:44:57.390Z,60.25
2022-11-09T20:50:09.785Z,64.25
2022-11-09T20:55:22.622Z,73.45
2022-11-09T21:00:34.616Z,62.13
2022-11-09T21:05:51.615Z,59.17
2022-11-09T21:11:06.284Z,60.22
2022-11-09T21:16:18.400Z,61.20
2022-11-09T21:21:35.050Z,61.92
2022-11-09T21:27:06.194Z,58.80
2022-11-09T21:32:18.743Z,52.97
2022-11-09T21:37:31.282Z,53.15
2022-11-09T21:42:43.937Z,50.05
2022-11-09T21:47:56.114Z,51.42
2022-11-09T21:53:08.717Z,48.30
2022-11-09T21:58:20.468Z,50.35
2022-11-09T22:03:32.138Z,47.15
2022-11-09T22:08:44.092Z,53.92
2022-11-09T22:14:14.744Z,50.47
2022-11-09T22:19:45.381Z,48.28
2022-11-09T22:30:11.795Z,44.03
2022-11-09T22:35:24.648Z,45.25
2022-11-09T22:40:37.678Z,44.20
2022-11-09T22:45:49.997Z,45.20
2022-11-09T22:51:02.202Z,46.63
2022-11-09T22:56:13.336Z,45.95
2022-11-09T23:01:25.761Z,46.35
2022-11-09T23:06:37.511Z,44.30
2022-11-09T23:11:49.859Z,45.00
2022-11-09T23:17:02.542Z,44.55
2022-11-09T23:22:14.153Z,44.28
2022-11-09T23:27:26.768Z,43.95
2022-11-09T23:32:38.893Z,44.75
2022-11-09T23:38:01.083Z,44.15
2022-11-09T23:43:13.837Z,44.67
2022-11-09T23:48:26.669Z,45.03
2022-11-09T23:53:42.961Z,44.35
2022-11-09T23:58:54.519Z,45.25
